Angora, Minnesota
Current Conditions -  °F | °C
As of 10:54 PM on Sunday 23 Nov 2014 (Local Time) from KCQM Reporting Station
Light Snow Light Snow  
Wind Chill: 34°   Ceiling: 300
Heat Index: 34°   Visibility: 1.2mi
Dew Point: 32°   Wind: 0mph
Humidity: 93%   Direction: NA
Pressure: 29.34"   Gusts: NA
Location:  47.77°N, 92.63°W
Report Text: KCQM 240454Z AUTO 00000KT 1 1/4SM -SN OVC003 01/00 A2934 RMK AO2 P0001
Loading
Personal Weather Stations






























Interactive Weather Map New forecast layout! Learn more

10-Day Weather Forecast

Advertisements
Track Severe Weather on mobile